createdAt,value
2022-09-06T00:00:47.891Z,22.76
2022-09-06T00:03:18.481Z,22.76
2022-09-06T00:05:48.344Z,22.79
2022-09-06T00:08:18.391Z,22.72
2022-09-06T00:10:48.177Z,22.58
2022-09-06T00:13:17.950Z,22.69
2022-09-06T00:15:47.805Z,22.57
2022-09-06T00:18:17.258Z,22.71
2022-09-06T00:20:46.760Z,22.54
2022-09-06T00:23:16.809Z,22.54
2022-09-06T00:25:46.569Z,22.52
2022-09-06T00:28:17.548Z,22.40
2022-09-06T00:30:47.604Z,22.41
2022-09-06T00:33:17.048Z,22.41
2022-09-06T00:35:47.376Z,22.17
2022-09-06T00:38:17.033Z,22.15
2022-09-06T00:40:46.801Z,22.15
2022-09-06T00:43:16.700Z,22.53
2022-09-06T00:45:46.895Z,22.25
2022-09-06T00:48:17.909Z,22.27
2022-09-06T00:50:50.213Z,21.98
2022-09-06T00:53:20.843Z,21.98
2022-09-06T00:55:50.967Z,22.08
2022-09-06T00:58:21.291Z,21.54
2022-09-06T01:00:50.774Z,21.70
2022-09-06T01:03:21.777Z,21.61
2022-09-06T01:06:03.307Z,20.88
2022-09-06T01:08:41.982Z,20.47
2022-09-06T01:11:29.746Z,20.45
2022-09-06T01:14:08.531Z,20.14
2022-09-06T01:16:53.081Z,20.48
2022-09-06T01:19:31.653Z,20.59
2022-09-06T01:22:13.119Z,20.75
2022-09-06T01:25:06.705Z,20.45
2022-09-06T01:28:01.778Z,20.79
2022-09-06T01:30:34.081Z,20.79
2022-09-06T01:33:09.788Z,20.96
2022-09-06T01:35:42.959Z,20.94
2022-09-06T01:38:12.602Z,20.94
2022-09-06T01:40:42.374Z,20.92
2022-09-06T01:43:14.483Z,21.03
2022-09-06T01:45:52.440Z,21.10
2022-09-06T01:48:36.734Z,20.98
2022-09-06T01:51:21.245Z,21.03
2022-09-06T01:54:10.558Z,21.05
2022-09-06T01:56:55.029Z,21.05
2022-09-06T01:59:30.620Z,21.13
2022-09-06T02:02:21.884Z,20.89
2022-09-06T02:05:09.715Z,20.89
2022-09-06T02:07:41.035Z,21.02
2022-09-06T02:10:30.194Z,20.96
2022-09-06T02:13:02.080Z,20.85
2022-09-06T02:15:37.671Z,20.85
2022-09-06T02:18:15.403Z,20.66
2022-09-06T02:20:48.281Z,20.63
2022-09-06T02:23:19.885Z,20.40
2022-09-06T02:25:52.731Z,20.41
2022-09-06T02:28:23.062Z,20.58
2022-09-06T02:30:55.991Z,20.52
2022-09-06T02:33:28.459Z,20.40
2022-09-06T02:36:00.000Z,20.55
2022-09-06T02:38:30.070Z,20.77
2022-09-06T02:40:59.616Z,20.80
2022-09-06T02:43:29.686Z,20.26
2022-09-06T02:45:59.508Z,20.37
2022-09-06T02:48:29.095Z,20.65
2022-09-06T02:51:00.731Z,20.65
2022-09-06T02:53:30.219Z,20.71
2022-09-06T02:56:00.320Z,20.88
2022-09-06T02:58:30.171Z,20.86
2022-09-06T03:00:59.985Z,20.84
2022-09-06T03:03:29.790Z,20.84
2022-09-06T03:05:59.626Z,20.77
2022-09-06T03:08:32.267Z,20.88
2022-09-06T03:11:02.480Z,20.86
2022-09-06T03:13:32.547Z,20.94
2022-09-06T03:16:02.657Z,20.94
2022-09-06T03:18:32.954Z,20.89
2022-09-06T03:21:03.721Z,20.89
2022-09-06T03:23:34.258Z,20.91
2022-09-06T03:26:07.953Z,20.94
2022-09-06T03:28:37.904Z,20.84
2022-09-06T03:31:07.863Z,20.54
2022-09-06T03:33:38.062Z,20.48
2022-09-06T03:36:09.178Z,20.11
2022-09-06T03:38:38.975Z,20.42
2022-09-06T03:41:08.810Z,20.54
2022-09-06T03:43:38.594Z,20.60
2022-09-06T03:46:09.682Z,20.69
2022-09-06T03:48:39.582Z,20.66
2022-09-06T03:51:09.362Z,20.64
2022-09-06T03:53:39.160Z,20.46
2022-09-06T03:56:11.076Z,20.21
2022-09-06T03:58:40.849Z,19.91
2022-09-06T04:04:11.533Z,20.18
2022-09-06T04:06:41.615Z,20.25
2022-09-06T04:09:11.152Z,20.25
2022-09-06T04:11:43.811Z,20.36
2022-09-06T04:14:12.259Z,20.46
2022-09-06T04:16:42.093Z,20.45
2022-09-06T04:19:11.914Z,20.45
2022-09-06T04:21:41.555Z,20.47
2022-09-06T04:24:11.730Z,20.40
2022-09-06T04:26:41.964Z,20.43
2022-09-06T04:29:11.770Z,20.51
2022-09-06T04:31:41.577Z,20.27
2022-09-06T04:34:11.738Z,20.27
2022-09-06T04:36:43.601Z,20.33
2022-09-06T04:39:12.687Z,20.40
2022-09-06T04:41:42.728Z,20.28
2022-09-06T04:44:12.278Z,20.36
2022-09-06T04:46:43.509Z,20.26
2022-09-06T04:49:13.593Z,20.19
2022-09-06T04:51:43.381Z,20.09
2022-09-06T04:54:13.044Z,19.95
2022-09-06T04:56:42.830Z,19.87
2022-09-06T04:59:12.633Z,19.87
2022-09-06T05:01:42.433Z,19.85
2022-09-06T05:04:12.258Z,19.85
2022-09-06T05:06:42.908Z,19.90
2022-09-06T05:09:12.693Z,19.84
2022-09-06T05:11:42.467Z,19.74
2022-09-06T05:14:12.286Z,19.82
2022-09-06T05:16:42.170Z,19.91
2022-09-06T05:19:12.018Z,19.81
2022-09-06T05:21:42.104Z,19.70
2022-09-06T05:24:12.208Z,19.71
2022-09-06T05:26:41.993Z,19.79
2022-09-06T05:29:11.779Z,19.73
2022-09-06T05:31:41.637Z,19.59
2022-09-06T05:34:13.321Z,19.72
2022-09-06T05:36:43.278Z,19.76
2022-09-06T05:39:13.064Z,19.75
2022-09-06T05:41:43.141Z,19.63
2022-09-06T05:44:13.292Z,19.59
2022-09-06T05:46:45.164Z,19.52
2022-09-06T05:49:15.102Z,19.64
2022-09-06T05:51:44.953Z,19.87
2022-09-06T05:54:14.725Z,19.67
2022-09-06T05:56:44.517Z,19.71
2022-09-06T05:59:14.600Z,19.67
2022-09-06T06:01:52.020Z,19.80
2022-09-06T06:04:22.565Z,19.76
2022-09-06T06:06:52.428Z,19.69
2022-09-06T06:09:22.576Z,19.73
2022-09-06T06:11:52.366Z,19.87
2022-09-06T06:14:22.071Z,19.89
2022-09-06T06:16:52.036Z,20.09
2022-09-06T06:19:21.881Z,20.30
2022-09-06T06:21:51.656Z,20.24
2022-09-06T06:24:21.149Z,20.42
2022-09-06T06:26:50.986Z,20.52
2022-09-06T06:29:20.778Z,20.75
2022-09-06T06:31:50.589Z,20.78
2022-09-06T06:34:21.793Z,21.06
2022-09-06T06:36:51.298Z,21.08
2022-09-06T06:39:21.058Z,21.19
2022-09-06T06:41:50.824Z,21.29
2022-09-06T06:44:30.946Z,21.59
2022-09-06T06:47:02.528Z,21.54
2022-09-06T06:49:32.473Z,21.40
2022-09-06T06:52:02.260Z,21.64
2022-09-06T06:54:32.048Z,21.72
2022-09-06T06:57:01.886Z,21.64
2022-09-06T06:59:32.112Z,21.20
2022-09-06T07:02:02.047Z,21.47
2022-09-06T07:04:31.893Z,21.76
2022-09-06T07:12:06.491Z,21.94
2022-09-06T07:14:36.945Z,21.98
2022-09-06T07:17:09.268Z,21.86
2022-09-06T07:22:13.635Z,22.07
2022-09-06T07:24:43.209Z,22.25
2022-09-06T07:29:44.780Z,22.71
2022-09-06T07:32:14.558Z,23.09
2022-09-06T07:34:44.785Z,23.09
2022-09-06T07:37:14.589Z,23.50
2022-09-06T07:39:45.161Z,23.47
2022-09-06T07:42:16.136Z,23.42
2022-09-06T07:44:45.914Z,23.42
2022-09-06T07:54:51.716Z,23.16
2022-09-06T07:57:21.770Z,23.21
2022-09-06T07:59:52.031Z,23.56
2022-09-06T08:02:21.568Z,23.77
2022-09-06T08:04:51.848Z,23.88
2022-09-06T08:09:53.163Z,24.10
2022-09-06T08:12:23.845Z,24.19
2022-09-06T08:14:53.714Z,24.27
2022-09-06T08:17:23.799Z,24.03
2022-09-06T08:19:53.304Z,24.54
2022-09-06T08:22:22.780Z,24.54
2022-09-06T08:24:52.576Z,24.69
2022-09-06T08:27:22.346Z,25.11
2022-09-06T08:29:52.125Z,25.09
2022-09-06T08:32:22.131Z,24.90
2022-09-06T08:34:52.009Z,24.94
2022-09-06T08:37:24.966Z,25.20
2022-09-06T08:39:53.333Z,25.25
2022-09-06T08:42:23.159Z,25.47
2022-09-06T08:44:56.285Z,25.39
2022-09-06T08:47:27.155Z,25.52
2022-09-06T08:50:05.463Z,26.05
2022-09-06T08:53:15.635Z,26.05
2022-09-06T08:55:28.782Z,25.86
2022-09-06T08:58:17.822Z,25.89
2022-09-06T09:00:58.076Z,26.39
2022-09-06T09:03:38.925Z,26.79
2022-09-06T09:06:11.922Z,26.96
2022-09-06T09:08:59.574Z,26.83
2022-09-06T09:11:32.823Z,26.99
2022-09-06T09:14:24.163Z,26.76
2022-09-06T09:16:57.164Z,27.43
2022-09-06T09:19:26.950Z,27.52
2022-09-06T09:21:57.001Z,27.61
2022-09-06T09:24:26.775Z,27.88
2022-09-06T09:27:08.640Z,28.03
2022-09-06T09:32:40.978Z,28.36
2022-09-06T09:35:24.571Z,28.55
2022-09-06T09:38:11.036Z,28.67
2022-09-06T09:40:55.946Z,28.49
2022-09-06T09:43:28.328Z,28.66
2022-09-06T09:46:19.233Z,28.59
2022-09-06T09:49:08.112Z,28.70
2022-09-06T09:51:42.883Z,28.60
2022-09-06T09:54:15.104Z,28.48
2022-09-06T09:56:55.423Z,28.48
2022-09-06T09:59:33.765Z,28.92
2022-09-06T10:02:05.215Z,29.43
2022-09-06T10:04:45.442Z,29.57
2022-09-06T10:07:23.559Z,29.51
2022-09-06T10:10:06.204Z,29.65
2022-09-06T10:12:41.289Z,29.63
2022-09-06T10:15:13.801Z,29.23
2022-09-06T10:17:52.450Z,29.28
2022-09-06T10:20:24.673Z,29.83
2022-09-06T10:23:06.613Z,30.50
2022-09-06T10:25:49.141Z,30.50
2022-09-06T10:28:30.066Z,30.40
2022-09-06T10:31:03.076Z,30.48
2022-09-06T10:33:56.845Z,30.09
2022-09-06T10:36:32.647Z,30.40
2022-09-06T10:39:06.144Z,30.10
2022-09-06T10:41:54.376Z,30.22
2022-09-06T10:44:42.167Z,29.78
2022-09-06T10:47:19.034Z,29.78
2022-09-06T10:49:54.549Z,30.66
2022-09-06T10:52:29.909Z,30.87
2022-09-06T10:55:05.532Z,30.68
2022-09-06T11:00:17.049Z,30.68
2022-09-06T11:05:40.601Z,30.17
2022-09-06T11:10:48.062Z,30.08
2022-09-06T11:13:20.074Z,30.36
2022-09-06T11:16:04.792Z,30.44
2022-09-06T11:18:43.546Z,30.35
2022-09-06T11:21:27.734Z,30.85
2022-09-06T11:24:18.327Z,30.29
2022-09-06T11:27:08.669Z,30.82
2022-09-06T11:29:43.790Z,31.18
2022-09-06T11:32:48.364Z,30.74
2022-09-06T11:35:27.167Z,30.74
2022-09-06T11:37:59.971Z,30.00
2022-09-06T11:40:38.905Z,30.00
2022-09-06T11:43:20.655Z,30.38
2022-09-06T11:45:53.362Z,30.67
2022-09-06T11:48:30.482Z,30.76
2022-09-06T11:51:03.287Z,31.20
2022-09-06T11:53:50.680Z,31.18
2022-09-06T11:56:28.823Z,31.10
2022-09-06T11:59:04.567Z,31.42
2022-09-06T12:01:36.688Z,31.54
2022-09-06T12:04:10.512Z,31.27
2022-09-06T12:06:45.936Z,30.61
2022-09-06T12:09:38.967Z,31.10
2022-09-06T12:12:16.830Z,30.88
2022-09-06T12:14:49.045Z,31.05
2022-09-06T12:17:22.579Z,30.74
2022-09-06T12:19:55.361Z,30.74
2022-09-06T12:22:35.773Z,30.88
2022-09-06T12:25:40.453Z,30.88
2022-09-06T12:28:14.450Z,31.39
2022-09-06T12:30:48.677Z,31.62
2022-09-06T12:33:32.947Z,31.27
2022-09-06T12:36:17.024Z,31.47
2022-09-06T12:38:58.305Z,31.42
2022-09-06T12:41:31.509Z,31.22
2022-09-06T12:44:02.823Z,31.22
2022-09-06T12:46:33.439Z,31.68
2022-09-06T12:49:05.447Z,32.08
2022-09-06T12:51:36.840Z,31.51
2022-09-06T12:54:20.116Z,31.51
2022-09-06T12:56:51.019Z,31.79
2022-09-06T12:59:24.865Z,31.66
2022-09-06T13:01:57.808Z,31.56
2022-09-06T13:04:42.510Z,31.51
2022-09-06T13:07:17.494Z,32.16
2022-09-06T13:09:49.869Z,32.03
2022-09-06T13:12:29.519Z,31.44
2022-09-06T13:15:05.026Z,31.39
2022-09-06T13:17:35.522Z,31.71
2022-09-06T13:20:17.839Z,31.98
2022-09-06T13:22:50.784Z,32.08
2022-09-06T13:25:26.024Z,31.77
2022-09-06T13:27:58.825Z,31.95
2022-09-06T13:30:34.257Z,32.47
2022-09-06T13:33:06.903Z,32.54
2022-09-06T13:35:39.045Z,32.51
2022-09-06T13:38:33.110Z,32.42
2022-09-06T13:41:13.754Z,32.64
2022-09-06T13:43:47.646Z,32.42
2022-09-06T13:46:17.430Z,31.84
2022-09-06T13:48:47.259Z,32.24
2022-09-06T13:51:18.237Z,32.15
2022-09-06T13:53:48.909Z,32.40
2022-09-06T13:56:18.530Z,32.73
2022-09-06T13:58:48.309Z,32.50
2022-09-06T14:01:19.038Z,32.24
2022-09-06T14:03:50.416Z,32.17
2022-09-06T14:06:19.885Z,31.98
2022-09-06T14:09:06.481Z,32.15
2022-09-06T14:11:21.263Z,32.43
2022-09-06T14:13:51.091Z,32.08
2022-09-06T14:16:20.985Z,32.20
2022-09-06T14:18:52.015Z,32.45
2022-09-06T14:21:21.922Z,32.39
2022-09-06T14:23:52.542Z,32.22
2022-09-06T14:26:23.625Z,32.42
2022-09-06T14:28:53.404Z,32.39
2022-09-06T14:31:26.068Z,32.31
2022-09-06T14:33:57.332Z,32.78
2022-09-06T14:36:30.653Z,32.98
2022-09-06T14:39:01.932Z,33.04
2022-09-06T14:41:31.763Z,32.72
2022-09-06T14:44:01.535Z,32.26
2022-09-06T14:46:31.823Z,32.51
2022-09-06T14:49:13.573Z,32.52
2022-09-06T14:51:43.310Z,32.88
2022-09-06T14:54:14.507Z,32.44
2022-09-06T14:56:44.888Z,32.82
2022-09-06T14:59:14.938Z,32.11
2022-09-06T15:01:44.798Z,32.15
2022-09-06T15:04:14.656Z,32.21
2022-09-06T15:06:46.033Z,32.56
2022-09-06T15:09:17.424Z,32.56
2022-09-06T15:11:52.205Z,32.76
2022-09-06T15:14:23.985Z,32.38
2022-09-06T15:16:57.022Z,32.48
2022-09-06T15:19:28.803Z,31.98
2022-09-06T15:21:58.907Z,32.04
2022-09-06T15:24:28.829Z,32.23
2022-09-06T15:26:59.101Z,31.85
2022-09-06T15:29:28.951Z,32.29
2022-09-06T15:31:58.706Z,32.75
2022-09-06T15:34:28.168Z,32.41
2022-09-06T15:36:57.710Z,32.43
2022-09-06T15:39:28.210Z,32.32
2022-09-06T15:41:57.992Z,31.98
2022-09-06T15:44:28.065Z,31.91
2022-09-06T15:46:59.179Z,31.77
2022-09-06T15:49:31.815Z,31.64
2022-09-06T15:52:05.948Z,32.40
2022-09-06T15:54:53.506Z,32.40
2022-09-06T15:57:23.283Z,32.69
2022-09-06T15:59:53.043Z,32.69
2022-09-06T16:02:24.108Z,32.54
2022-09-06T16:04:54.651Z,32.02
2022-09-06T16:07:25.392Z,32.13
2022-09-06T16:09:55.162Z,32.19
2022-09-06T16:12:24.634Z,31.48
2022-09-06T16:14:54.394Z,31.40
2022-09-06T16:17:25.529Z,31.83
2022-09-06T16:19:55.011Z,31.69
2022-09-06T16:22:24.778Z,32.04
2022-09-06T16:24:54.330Z,32.06
2022-09-06T16:27:24.094Z,31.76
2022-09-06T16:29:54.123Z,31.53
2022-09-06T16:32:23.765Z,30.88
2022-09-06T16:34:53.810Z,30.87
2022-09-06T16:37:24.059Z,30.72
2022-09-06T16:39:54.039Z,30.61
2022-09-06T16:42:23.559Z,30.76
2022-09-06T16:44:53.605Z,30.65
2022-09-06T16:47:23.535Z,30.38
2022-09-06T16:49:53.300Z,30.26
2022-09-06T16:52:23.120Z,30.16
2022-09-06T16:54:52.888Z,30.26
2022-09-06T16:57:24.301Z,30.10
2022-09-06T16:59:54.069Z,30.16
2022-09-06T17:02:24.028Z,29.92
2022-09-06T17:04:53.855Z,29.92
2022-09-06T17:07:24.683Z,29.78
2022-09-06T17:09:54.449Z,29.83
2022-09-06T17:12:24.355Z,29.91
2022-09-06T17:14:54.114Z,29.60
2022-09-06T17:17:23.887Z,29.76
2022-09-06T17:19:53.647Z,29.57
2022-09-06T17:22:23.416Z,29.19
2022-09-06T17:24:53.262Z,29.19
2022-09-06T17:27:23.413Z,29.03
2022-09-06T17:29:53.847Z,28.96
2022-09-06T17:32:23.986Z,28.83
2022-09-06T17:34:53.803Z,28.67
2022-09-06T17:37:23.655Z,28.69
2022-09-06T17:39:53.452Z,28.84
2022-09-06T17:42:23.325Z,28.66
2022-09-06T17:44:53.097Z,28.58
2022-09-06T17:47:22.865Z,28.59
2022-09-06T17:49:52.645Z,28.53
2022-09-06T17:52:22.574Z,28.45
2022-09-06T17:54:52.351Z,28.30
2022-09-06T17:57:22.256Z,28.33
2022-09-06T17:59:52.032Z,28.16
2022-09-06T18:02:21.784Z,28.00
2022-09-06T18:04:51.605Z,28.04
2022-09-06T18:07:21.388Z,27.85
2022-09-06T18:09:51.190Z,27.77
2022-09-06T18:12:22.446Z,27.95
2022-09-06T18:14:52.583Z,27.73
2022-09-06T18:17:23.925Z,27.67
2022-09-06T18:19:53.772Z,27.59
2022-09-06T18:22:23.531Z,27.48
2022-09-06T18:24:58.024Z,27.53
2022-09-06T18:27:25.718Z,27.37
2022-09-06T18:29:55.592Z,27.29
2022-09-06T18:32:25.227Z,27.21
2022-09-06T18:34:55.108Z,27.36
2022-09-06T18:37:25.010Z,27.34
2022-09-06T18:39:54.863Z,27.27
2022-09-06T18:42:24.668Z,27.23
2022-09-06T18:44:56.077Z,27.18
2022-09-06T18:47:25.847Z,26.96
2022-09-06T18:49:55.627Z,26.87
2022-09-06T18:52:25.367Z,26.84
2022-09-06T18:54:55.141Z,26.84
2022-09-06T18:57:24.999Z,26.88
2022-09-06T18:59:55.073Z,26.83
2022-09-06T19:02:26.338Z,26.86
2022-09-06T19:04:57.983Z,26.74
2022-09-06T19:07:29.794Z,26.56
2022-09-06T19:09:59.761Z,26.56
2022-09-06T19:12:29.722Z,26.76
2022-09-06T19:14:59.771Z,26.55
2022-09-06T19:17:29.553Z,26.41
2022-09-06T19:19:59.590Z,26.37
2022-09-06T19:22:29.083Z,26.37
2022-09-06T19:24:59.225Z,26.29
2022-09-06T19:27:29.015Z,26.29
2022-09-06T19:29:59.350Z,26.16
2022-09-06T19:32:29.131Z,26.11
2022-09-06T19:34:58.909Z,26.19
2022-09-06T19:37:29.398Z,25.95
2022-09-06T19:39:59.260Z,26.02
2022-09-06T19:42:29.013Z,26.10
2022-09-06T19:44:58.493Z,25.97
2022-09-06T19:47:28.537Z,25.94
2022-09-06T19:49:58.961Z,26.10
2022-09-06T19:52:29.016Z,26.10
2022-09-06T19:54:58.496Z,25.95
2022-09-06T19:57:29.152Z,26.10
2022-09-06T19:59:59.083Z,26.18
2022-09-06T20:02:29.131Z,25.99
2022-09-06T20:04:58.913Z,25.98
2022-09-06T20:07:28.703Z,26.04
2022-09-06T20:09:58.481Z,26.00
2022-09-06T20:12:29.603Z,25.91
2022-09-06T20:14:59.379Z,25.91
2022-09-06T20:17:33.676Z,25.82
2022-09-06T20:20:00.895Z,25.97
2022-09-06T20:22:31.039Z,25.92
2022-09-06T20:25:00.808Z,25.73
2022-09-06T20:27:31.930Z,25.60
2022-09-06T20:30:01.697Z,25.81
2022-09-06T20:32:31.830Z,25.60
2022-09-06T20:35:01.669Z,25.50
2022-09-06T20:37:31.465Z,25.50
2022-09-06T20:40:01.616Z,25.53
2022-09-06T20:42:31.382Z,25.36
2022-09-06T20:45:01.207Z,25.27
2022-09-06T20:47:30.991Z,25.23
2022-09-06T20:50:00.840Z,25.07
2022-09-06T20:52:31.284Z,25.01
2022-09-06T20:55:01.046Z,24.86
2022-09-06T20:57:30.902Z,24.87
2022-09-06T21:00:00.672Z,24.77
2022-09-06T21:02:30.502Z,24.66
2022-09-06T21:05:00.420Z,24.55
2022-09-06T21:07:30.195Z,24.77
2022-09-06T21:09:59.961Z,24.71
2022-09-06T21:12:29.745Z,24.65
2022-09-06T21:14:59.582Z,24.67
2022-09-06T21:17:29.371Z,24.46
2022-09-06T21:19:59.140Z,24.57
2022-09-06T21:22:28.918Z,24.50
2022-09-06T21:24:58.681Z,24.70
2022-09-06T21:27:28.451Z,24.53
2022-09-06T21:29:58.506Z,24.60
2022-09-06T21:32:28.161Z,24.67
2022-09-06T21:34:58.008Z,24.73
2022-09-06T21:37:27.777Z,24.58
2022-09-06T21:39:57.577Z,24.59
2022-09-06T21:42:31.167Z,24.66
2022-09-06T21:45:00.945Z,24.70
2022-09-06T21:47:31.382Z,24.73
2022-09-06T21:50:01.161Z,24.66
2022-09-06T21:52:32.297Z,24.63
2022-09-06T21:55:02.091Z,24.42
2022-09-06T21:57:31.856Z,24.26
2022-09-06T22:00:01.711Z,24.35
2022-09-06T22:02:33.644Z,24.46
2022-09-06T22:05:05.079Z,24.38
2022-09-06T22:07:37.408Z,24.24
2022-09-06T22:10:08.696Z,24.15
2022-09-06T22:12:38.533Z,24.20
2022-09-06T22:15:10.064Z,24.36
2022-09-06T22:17:39.846Z,24.05
2022-09-06T22:20:11.963Z,24.08
2022-09-06T22:22:43.384Z,24.16
2022-09-06T22:25:13.718Z,24.29
2022-09-06T22:27:43.349Z,24.44
2022-09-06T22:30:13.318Z,24.31
2022-09-06T22:32:43.473Z,24.58
2022-09-06T22:35:13.023Z,24.53
2022-09-06T22:37:42.805Z,23.78
2022-09-06T22:40:12.633Z,23.78
2022-09-06T22:42:43.306Z,23.25
2022-09-06T22:45:13.076Z,23.09
2022-09-06T22:47:43.154Z,22.93
2022-09-06T22:50:14.614Z,22.59
2022-09-06T22:52:44.410Z,21.65
2022-09-06T22:55:14.230Z,20.77
2022-09-06T22:57:43.717Z,20.90
2022-09-06T23:00:15.750Z,20.72
2022-09-06T23:02:45.595Z,20.76
2022-09-06T23:05:15.733Z,20.80
2022-09-06T23:07:45.680Z,20.86
2022-09-06T23:10:15.503Z,20.46
2022-09-06T23:12:45.369Z,19.91
2022-09-06T23:15:14.837Z,20.09
2022-09-06T23:17:45.474Z,20.28
2022-09-06T23:20:15.018Z,20.11
2022-09-06T23:22:45.098Z,20.15
2022-09-06T23:25:14.672Z,20.15
2022-09-06T23:27:44.771Z,19.79
2022-09-06T23:30:14.814Z,19.89
2022-09-06T23:32:44.602Z,20.12
2022-09-06T23:35:14.150Z,20.12
2022-09-06T23:37:44.250Z,20.13
2022-09-06T23:40:14.967Z,20.13
2022-09-06T23:42:45.125Z,20.13
2022-09-06T23:45:15.804Z,19.85
2022-09-06T23:47:45.888Z,20.17
2022-09-06T23:50:15.957Z,19.88
2022-09-06T23:52:45.728Z,19.88
2022-09-06T23:55:15.275Z,19.81
2022-09-06T23:57:45.038Z,19.76
